sensor_id;sensor_type;location;lat;lon;timestamp;pressure;altitude;pressure_sealevel;temperature;humidity
66206;BME280;53009;52.490;4.976;2023-11-19T00:03:33;155800;;;13.1;19.7
66206;BME280;53009;52.490;4.976;2023-11-19T00:08:33;155800;;;13.1;19.6
66206;BME280;53009;52.490;4.976;2023-11-19T00:13:33;155800;;;13.1;19.5
66206;BME280;53009;52.490;4.976;2023-11-19T00:18:33;155800;;;13;19.4
66206;BME280;53009;52.490;4.976;2023-11-19T00:23:33;155800;;;13;19.3
66206;BME280;53009;52.490;4.976;2023-11-19T00:28:33;155800;;;12.9;19.4
66206;BME280;53009;52.490;4.976;2023-11-19T00:33:33;155800;;;12.9;19.3
66206;BME280;53009;52.490;4.976;2023-11-19T00:38:33;155800;;;12.9;19.2
66206;BME280;53009;52.490;4.976;2023-11-19T00:43:33;155800;;;12.9;18.9
66206;BME280;53009;52.490;4.976;2023-11-19T00:48:33;155800;;;12.8;18.8
66206;BME280;53009;52.490;4.976;2023-11-19T00:53:33;155800;;;12.7;18.7
66206;BME280;53009;52.490;4.976;2023-11-19T00:58:33;155800;;;12.7;18.5
66206;BME280;53009;52.490;4.976;2023-11-19T01:03:33;155800;;;12.7;18.3
66206;BME280;53009;52.490;4.976;2023-11-19T01:08:33;155800;;;12.7;18.2
66206;BME280;53009;52.490;4.976;2023-11-19T01:13:33;155800;;;12.7;18
66206;BME280;53009;52.490;4.976;2023-11-19T01:18:33;155800;;;12.7;18.1
66206;BME280;53009;52.490;4.976;2023-11-19T01:23:33;155800;;;12.8;18.2
66206;BME280;53009;52.490;4.976;2023-11-19T01:28:33;155800;;;12.8;18
66206;BME280;53009;52.490;4.976;2023-11-19T01:33:33;155700;;;12.8;17.9
66206;BME280;53009;52.490;4.976;2023-11-19T01:38:33;155700;;;12.8;17.9
66206;BME280;53009;52.490;4.976;2023-11-19T01:43:34;155700;;;12.8;17.6
66206;BME280;53009;52.490;4.976;2023-11-19T01:48:33;155700;;;12.8;17.4
66206;BME280;53009;52.490;4.976;2023-11-19T01:53:33;155700;;;12.8;17
66206;BME280;53009;52.490;4.976;2023-11-19T01:58:33;155700;;;12.8;16.8
66206;BME280;53009;52.490;4.976;2023-11-19T02:03:34;155700;;;12.8;16.7
66206;BME280;53009;52.490;4.976;2023-11-19T02:08:33;155700;;;12.8;16.5
66206;BME280;53009;52.490;4.976;2023-11-19T02:13:33;155700;;;12.8;16.3
66206;BME280;53009;52.490;4.976;2023-11-19T02:18:33;155700;;;12.8;16.1
66206;BME280;53009;52.490;4.976;2023-11-19T02:23:33;155700;;;12.7;16
66206;BME280;53009;52.490;4.976;2023-11-19T02:28:33;155700;;;12.7;16.2
66206;BME280;53009;52.490;4.976;2023-11-19T02:33:33;155700;;;12.7;16.2
66206;BME280;53009;52.490;4.976;2023-11-19T02:38:34;155700;;;12.7;16.1
66206;BME280;53009;52.490;4.976;2023-11-19T02:43:34;155700;;;12.7;15.9
66206;BME280;53009;52.490;4.976;2023-11-19T02:48:33;155700;;;12.6;15.8
66206;BME280;53009;52.490;4.976;2023-11-19T02:53:33;155700;;;12.6;15.6
66206;BME280;53009;52.490;4.976;2023-11-19T02:58:33;155700;;;12.5;15.8
66206;BME280;53009;52.490;4.976;2023-11-19T03:03:33;155700;;;12.5;15.8
66206;BME280;53009;52.490;4.976;2023-11-19T03:08:35;155700;;;12.5;15.6
66206;BME280;53009;52.490;4.976;2023-11-19T03:13:33;155700;;;12.5;15.3
66206;BME280;53009;52.490;4.976;2023-11-19T03:18:33;155700;;;12.6;15
66206;BME280;53009;52.490;4.976;2023-11-19T03:23:34;155700;;;12.5;14.8
66206;BME280;53009;52.490;4.976;2023-11-19T03:28:33;155700;;;12.5;14.6
66206;BME280;53009;52.490;4.976;2023-11-19T03:33:33;155700;;;12.5;14.5
66206;BME280;53009;52.490;4.976;2023-11-19T03:38:33;155700;;;12.6;14.4
66206;BME280;53009;52.490;4.976;2023-11-19T03:43:33;155700;;;12.6;14.2
66206;BME280;53009;52.490;4.976;2023-11-19T03:48:33;155700;;;12.6;14.1
66206;BME280;53009;52.490;4.976;2023-11-19T03:53:33;155700;;;12.6;14
66206;BME280;53009;52.490;4.976;2023-11-19T03:58:33;155700;;;12.6;13.9
66206;BME280;53009;52.490;4.976;2023-11-19T04:03:33;155600;;;12.5;13.7
66206;BME280;53009;52.490;4.976;2023-11-19T04:08:33;155600;;;12.5;13.8
66206;BME280;53009;52.490;4.976;2023-11-19T04:13:33;155600;;;12.5;13.7
66206;BME280;53009;52.490;4.976;2023-11-19T04:18:33;155600;;;12.4;13.7
66206;BME280;53009;52.490;4.976;2023-11-19T04:23:34;155600;;;12.3;13.7
66206;BME280;53009;52.490;4.976;2023-11-19T04:28:33;155600;;;12.3;13.4
66206;BME280;53009;52.490;4.976;2023-11-19T04:33:33;155600;;;12.3;13.4
66206;BME280;53009;52.490;4.976;2023-11-19T04:38:33;155600;;;12.2;13.5
66206;BME280;53009;52.490;4.976;2023-11-19T04:43:35;155600;;;12.3;13.4
66206;BME280;53009;52.490;4.976;2023-11-19T04:48:33;155600;;;12.3;13.4
66206;BME280;53009;52.490;4.976;2023-11-19T04:53:33;155600;;;12.4;13.2
66206;BME280;53009;52.490;4.976;2023-11-19T04:58:34;155600;;;12.4;13.2
66206;BME280;53009;52.490;4.976;2023-11-19T05:03:33;155600;;;12.4;13.2
66206;BME280;53009;52.490;4.976;2023-11-19T05:08:33;155600;;;12.3;13.2
66206;BME280;53009;52.490;4.976;2023-11-19T05:13:33;155600;;;12.3;13.1
66206;BME280;53009;52.490;4.976;2023-11-19T05:18:34;155600;;;12.3;13.2
66206;BME280;53009;52.490;4.976;2023-11-19T05:23:34;155600;;;12.3;13.2
66206;BME280;53009;52.490;4.976;2023-11-19T05:28:33;155600;;;12.3;13.2
66206;BME280;53009;52.490;4.976;2023-11-19T05:33:34;155600;;;12.3;13.3
66206;BME280;53009;52.490;4.976;2023-11-19T05:38:33;155600;;;12.2;13.3
66206;BME280;53009;52.490;4.976;2023-11-19T05:43:34;155700;;;12.2;13.3
66206;BME280;53009;52.490;4.976;2023-11-19T05:48:34;155700;;;12.3;13.2
66206;BME280;53009;52.490;4.976;2023-11-19T05:53:34;155800;;;12.3;13.2
66206;BME280;53009;52.490;4.976;2023-11-19T05:58:34;155800;;;12.3;13.2
66206;BME280;53009;52.490;4.976;2023-11-19T06:03:34;155800;;;12.2;13.1
66206;BME280;53009;52.490;4.976;2023-11-19T06:08:34;155700;;;12.2;13.2
66206;BME280;53009;52.490;4.976;2023-11-19T06:13:34;155700;;;12.2;13.2
66206;BME280;53009;52.490;4.976;2023-11-19T06:18:34;155600;;;12.2;13.1
66206;BME280;53009;52.490;4.976;2023-11-19T06:23:34;155600;;;12.1;13.1
66206;BME280;53009;52.490;4.976;2023-11-19T06:28:34;155600;;;12;13.2
66206;BME280;53009;52.490;4.976;2023-11-19T06:33:34;155600;;;12.1;13.3
66206;BME280;53009;52.490;4.976;2023-11-19T06:38:34;155600;;;12;13.3
66206;BME280;53009;52.490;4.976;2023-11-19T06:43:34;155600;;;11.9;13.5
66206;BME280;53009;52.490;4.976;2023-11-19T06:48:34;155600;;;11.9;13.5
66206;BME280;53009;52.490;4.976;2023-11-19T06:53:34;155600;;;11.9;13.4
66206;BME280;53009;52.490;4.976;2023-11-19T06:58:35;155600;;;11.9;13.5
66206;BME280;53009;52.490;4.976;2023-11-19T07:03:34;155600;;;12;13.6
66206;BME280;53009;52.490;4.976;2023-11-19T07:08:34;155600;;;12;13.6
66206;BME280;53009;52.490;4.976;2023-11-19T07:13:34;155600;;;12.1;13.4
66206;BME280;53009;52.490;4.976;2023-11-19T07:18:34;155600;;;12.1;13.4
66206;BME280;53009;52.490;4.976;2023-11-19T07:23:34;155600;;;12.2;13.2
66206;BME280;53009;52.490;4.976;2023-11-19T07:28:34;155600;;;12.3;13.1
66206;BME280;53009;52.490;4.976;2023-11-19T07:33:34;155600;;;12.3;13
66206;BME280;53009;52.490;4.976;2023-11-19T07:38:34;155600;;;12.3;13.1
66206;BME280;53009;52.490;4.976;2023-11-19T07:43:34;155600;;;12.2;13.1
66206;BME280;53009;52.490;4.976;2023-11-19T07:48:34;155600;;;12.2;13.2
66206;BME280;53009;52.490;4.976;2023-11-19T07:53:34;155600;;;12.2;13
66206;BME280;53009;52.490;4.976;2023-11-19T07:58:34;155700;;;12.2;13
66206;BME280;53009;52.490;4.976;2023-11-19T08:03:34;155700;;;12.2;13.1
66206;BME280;53009;52.490;4.976;2023-11-19T08:08:34;155700;;;12.2;12.9
66206;BME280;53009;52.490;4.976;2023-11-19T08:13:34;155700;;;12.2;12.9
66206;BME280;53009;52.490;4.976;2023-11-19T08:18:34;155800;;;12.3;12.8
66206;BME280;53009;52.490;4.976;2023-11-19T08:23:34;155800;;;12.3;12.8
66206;BME280;53009;52.490;4.976;2023-11-19T08:28:34;155800;;;12.3;12.8
66206;BME280;53009;52.490;4.976;2023-11-19T08:33:34;155800;;;12.3;12.8
66206;BME280;53009;52.490;4.976;2023-11-19T08:38:34;155800;;;12.3;12.8
66206;BME280;53009;52.490;4.976;2023-11-19T08:43:34;155900;;;12.5;12.6
66206;BME280;53009;52.490;4.976;2023-11-19T08:48:34;155900;;;12.6;12.4
66206;BME280;53009;52.490;4.976;2023-11-19T08:53:34;155900;;;12.8;12.3
66206;BME280;53009;52.490;4.976;2023-11-19T08:58:34;155900;;;12.8;12.2
66206;BME280;53009;52.490;4.976;2023-11-19T09:03:34;155900;;;12.9;12.1
66206;BME280;53009;52.490;4.976;2023-11-19T09:08:34;156000;;;12.9;12.1
66206;BME280;53009;52.490;4.976;2023-11-19T09:13:34;156000;;;12.8;12.3
66206;BME280;53009;52.490;4.976;2023-11-19T09:18:34;156000;;;12.7;12.5
66206;BME280;53009;52.490;4.976;2023-11-19T09:23:34;156000;;;12.8;12.5
66206;BME280;53009;52.490;4.976;2023-11-19T09:28:34;156000;;;12.9;12.1
66206;BME280;53009;52.490;4.976;2023-11-19T09:33:34;156000;;;13;12.1
66206;BME280;53009;52.490;4.976;2023-11-19T09:38:34;156000;;;12.9;12.1
66206;BME280;53009;52.490;4.976;2023-11-19T09:43:34;156000;;;13;12
66206;BME280;53009;52.490;4.976;2023-11-19T09:48:34;156000;;;13.1;11.8
66206;BME280;53009;52.490;4.976;2023-11-19T09:53:34;156000;;;13.1;12.1
66206;BME280;53009;52.490;4.976;2023-11-19T09:58:34;156000;;;13.1;12
66206;BME280;53009;52.490;4.976;2023-11-19T10:03:34;156000;;;13.1;12.1
66206;BME280;53009;52.490;4.976;2023-11-19T10:08:34;156000;;;13.1;12.1
66206;BME280;53009;52.490;4.976;2023-11-19T10:13:34;156000;;;13.1;12
66206;BME280;53009;52.490;4.976;2023-11-19T10:18:34;156000;;;13.2;11.9
66206;BME280;53009;52.490;4.976;2023-11-19T10:23:47;156000;;;13.3;11.9
66206;BME280;53009;52.490;4.976;2023-11-19T10:28:38;156000;;;13.3;11.8
66206;BME280;53009;52.490;4.976;2023-11-19T10:33:34;156000;;;13.2;11.7
66206;BME280;53009;52.490;4.976;2023-11-19T10:38:34;156000;;;13.1;11.6
66206;BME280;53009;52.490;4.976;2023-11-19T10:43:42;156000;;;13.2;11.7
66206;BME280;53009;52.490;4.976;2023-11-19T10:48:34;156000;;;13.5;11.6
66206;BME280;53009;52.490;4.976;2023-11-19T10:53:35;156000;;;13.7;11.2
66206;BME280;53009;52.490;4.976;2023-11-19T10:58:34;156000;;;13.6;10.6
66206;BME280;53009;52.490;4.976;2023-11-19T11:03:35;156000;;;13.6;10.5
66206;BME280;53009;52.490;4.976;2023-11-19T11:08:35;156000;;;13.6;10.8
66206;BME280;53009;52.490;4.976;2023-11-19T11:13:34;156000;;;13.6;10.8
66206;BME280;53009;52.490;4.976;2023-11-19T11:18:34;156000;;;13.7;10.7
66206;BME280;53009;52.490;4.976;2023-11-19T11:23:40;156000;;;13.8;10.7
66206;BME280;53009;52.490;4.976;2023-11-19T11:28:35;156000;;;13.9;10.5
66206;BME280;53009;52.490;4.976;2023-11-19T11:33:36;156000;;;13.9;10.5
66206;BME280;53009;52.490;4.976;2023-11-19T11:38:35;155900;;;13.8;10.3
66206;BME280;53009;52.490;4.976;2023-11-19T11:43:50;156000;;;13.8;10.1
66206;BME280;53009;52.490;4.976;2023-11-19T11:48:34;156000;;;13.8;9.9
66206;BME280;53009;52.490;4.976;2023-11-19T11:53:34;156000;;;13.7;10.4
66206;BME280;53009;52.490;4.976;2023-11-19T11:58:35;156000;;;13.7;10.5
66206;BME280;53009;52.490;4.976;2023-11-19T12:03:34;156000;;;13.5;10.7
66206;BME280;53009;52.490;4.976;2023-11-19T12:08:34;156000;;;13.5;10.4
66206;BME280;53009;52.490;4.976;2023-11-19T12:14:06;156000;;;13.6;10.7
66206;BME280;53009;52.490;4.976;2023-11-19T12:18:34;155900;;;13.7;10.3
66206;BME280;53009;52.490;4.976;2023-11-19T12:23:34;155900;;;13.8;10.5
66206;BME280;53009;52.490;4.976;2023-11-19T12:28:34;155900;;;13.7;10.2
66206;BME280;53009;52.490;4.976;2023-11-19T12:33:35;155900;;;13.6;10.5
66206;BME280;53009;52.490;4.976;2023-11-19T12:38:34;155900;;;13.5;10.7
66206;BME280;53009;52.490;4.976;2023-11-19T12:43:34;155900;;;13.6;10.8
66206;BME280;53009;52.490;4.976;2023-11-19T12:48:34;155900;;;13.6;10.8
66206;BME280;53009;52.490;4.976;2023-11-19T12:53:46;155900;;;13.6;10.8
66206;BME280;53009;52.490;4.976;2023-11-19T12:58:35;155900;;;13.5;11
66206;BME280;53009;52.490;4.976;2023-11-19T13:03:35;155900;;;13.4;11.4
66206;BME280;53009;52.490;4.976;2023-11-19T13:08:36;155900;;;13.5;11.9
66206;BME280;53009;52.490;4.976;2023-11-19T13:13:52;155900;;;13.3;11.8
66206;BME280;53009;52.490;4.976;2023-11-19T13:18:34;155900;;;13.3;11.9
66206;BME280;53009;52.490;4.976;2023-11-19T13:23:34;155900;;;13.4;11.7
66206;BME280;53009;52.490;4.976;2023-11-19T13:28:34;155900;;;13.6;11.5
66206;BME280;53009;52.490;4.976;2023-11-19T13:33:34;155900;;;13.8;11.2
66206;BME280;53009;52.490;4.976;2023-11-19T13:38:34;155900;;;13.8;10.9
66206;BME280;53009;52.490;4.976;2023-11-19T13:43:34;155900;;;13.8;10.8
66206;BME280;53009;52.490;4.976;2023-11-19T13:48:34;155900;;;13.8;10.6
66206;BME280;53009;52.490;4.976;2023-11-19T13:53:34;155900;;;13.8;10.7
66206;BME280;53009;52.490;4.976;2023-11-19T13:58:34;155900;;;13.7;10.7
66206;BME280;53009;52.490;4.976;2023-11-19T14:03:34;155900;;;13.7;10.7
66206;BME280;53009;52.490;4.976;2023-11-19T14:08:34;155900;;;13.6;10.8
66206;BME280;53009;52.490;4.976;2023-11-19T14:13:34;155900;;;13.5;11.1
66206;BME280;53009;52.490;4.976;2023-11-19T14:18:34;155900;;;13.5;11.1
66206;BME280;53009;52.490;4.976;2023-11-19T14:23:34;155900;;;13.4;11.1
66206;BME280;53009;52.490;4.976;2023-11-19T14:28:34;155900;;;13.4;11.3
66206;BME280;53009;52.490;4.976;2023-11-19T14:33:34;155900;;;13.3;11.3
66206;BME280;53009;52.490;4.976;2023-11-19T14:38:34;155900;;;13.2;11.6
66206;BME280;53009;52.490;4.976;2023-11-19T14:43:34;155800;;;13.2;11.6
66206;BME280;53009;52.490;4.976;2023-11-19T14:48:34;155900;;;13.1;11.9
66206;BME280;53009;52.490;4.976;2023-11-19T14:53:34;155800;;;13;12.1
66206;BME280;53009;52.490;4.976;2023-11-19T14:58:34;155800;;;12.9;12.5
66206;BME280;53009;52.490;4.976;2023-11-19T15:03:34;155800;;;12.8;12.9
66206;BME280;53009;52.490;4.976;2023-11-19T15:08:34;155800;;;12.8;13.1
66206;BME280;53009;52.490;4.976;2023-11-19T15:13:34;155800;;;12.8;13.2
66206;BME280;53009;52.490;4.976;2023-11-19T15:18:34;155800;;;12.7;13.2
66206;BME280;53009;52.490;4.976;2023-11-19T15:23:34;155800;;;12.7;13.5
66206;BME280;53009;52.490;4.976;2023-11-19T15:28:34;155800;;;12.7;13.5
66206;BME280;53009;52.490;4.976;2023-11-19T15:33:34;155800;;;12.6;13.6
66206;BME280;53009;52.490;4.976;2023-11-19T15:38:35;155800;;;12.6;13.6
66206;BME280;53009;52.490;4.976;2023-11-19T15:43:34;155800;;;12.5;13.7
66206;BME280;53009;52.490;4.976;2023-11-19T15:48:34;155800;;;12.6;13.6
66206;BME280;53009;52.490;4.976;2023-11-19T15:53:34;155800;;;12.6;13.4
66206;BME280;53009;52.490;4.976;2023-11-19T15:58:34;155800;;;12.6;13.3
66206;BME280;53009;52.490;4.976;2023-11-19T16:03:34;155800;;;12.6;13.4
66206;BME280;53009;52.490;4.976;2023-11-19T16:08:34;155800;;;12.5;13.4
66206;BME280;53009;52.490;4.976;2023-11-19T16:13:34;155800;;;12.5;13.6
66206;BME280;53009;52.490;4.976;2023-11-19T16:18:34;155800;;;12.5;13.8
66206;BME280;53009;52.490;4.976;2023-11-19T16:23:34;155800;;;12.5;13.9
66206;BME280;53009;52.490;4.976;2023-11-19T16:28:34;155800;;;12.5;14
66206;BME280;53009;52.490;4.976;2023-11-19T16:33:34;155800;;;12.5;14.2
66206;BME280;53009;52.490;4.976;2023-11-19T16:38:34;155800;;;12.5;14.4
66206;BME280;53009;52.490;4.976;2023-11-19T16:43:34;155800;;;12.5;14.5
66206;BME280;53009;52.490;4.976;2023-11-19T16:48:34;155700;;;12.5;14.4
66206;BME280;53009;52.490;4.976;2023-11-19T16:53:34;155700;;;12.5;14.5
66206;BME280;53009;52.490;4.976;2023-11-19T16:58:34;155700;;;12.5;14.7
66206;BME280;53009;52.490;4.976;2023-11-19T17:03:34;155700;;;12.5;15
66206;BME280;53009;52.490;4.976;2023-11-19T17:08:35;155700;;;12.4;15.4
66206;BME280;53009;52.490;4.976;2023-11-19T17:13:34;155700;;;12.3;15.7
66206;BME280;53009;52.490;4.976;2023-11-19T17:18:34;155700;;;12.3;15.8
66206;BME280;53009;52.490;4.976;2023-11-19T17:23:34;155700;;;12.3;16
66206;BME280;53009;52.490;4.976;2023-11-19T17:28:34;155700;;;12.3;16.2
66206;BME280;53009;52.490;4.976;2023-11-19T17:33:34;155700;;;12.3;16.5
66206;BME280;53009;52.490;4.976;2023-11-19T17:38:34;155700;;;12.3;16.6
66206;BME280;53009;52.490;4.976;2023-11-19T17:43:34;155700;;;12.3;16.7
66206;BME280;53009;52.490;4.976;2023-11-19T17:48:34;155700;;;12.3;16.7
66206;BME280;53009;52.490;4.976;2023-11-19T17:53:34;155700;;;12.3;16.9
66206;BME280;53009;52.490;4.976;2023-11-19T17:58:34;155700;;;12.4;16.9
66206;BME280;53009;52.490;4.976;2023-11-19T18:03:34;155700;;;12.3;17
66206;BME280;53009;52.490;4.976;2023-11-19T18:08:35;155700;;;12.4;16.9
66206;BME280;53009;52.490;4.976;2023-11-19T18:13:34;155700;;;12.4;17
66206;BME280;53009;52.490;4.976;2023-11-19T18:18:34;155700;;;12.3;17.3
66206;BME280;53009;52.490;4.976;2023-11-19T18:23:35;155700;;;12.3;17.2
66206;BME280;53009;52.490;4.976;2023-11-19T18:28:35;155700;;;12.4;17
66206;BME280;53009;52.490;4.976;2023-11-19T18:33:34;155700;;;12.4;16.8
66206;BME280;53009;52.490;4.976;2023-11-19T18:38:34;155700;;;12.5;16.6
66206;BME280;53009;52.490;4.976;2023-11-19T18:43:34;155700;;;12.5;16.4
66206;BME280;53009;52.490;4.976;2023-11-19T18:48:34;155800;;;12.5;16.3
66206;BME280;53009;52.490;4.976;2023-11-19T18:53:34;155900;;;12.5;16.2
66206;BME280;53009;52.490;4.976;2023-11-19T18:58:35;155900;;;12.5;16.2
66206;BME280;53009;52.490;4.976;2023-11-19T19:03:34;156000;;;12.5;16.3
66206;BME280;53009;52.490;4.976;2023-11-19T19:08:35;156000;;;12.5;16.4
66206;BME280;53009;52.490;4.976;2023-11-19T19:13:35;156000;;;12.5;16.4
66206;BME280;53009;52.490;4.976;2023-11-19T19:18:35;155900;;;12.5;16.2
66206;BME280;53009;52.490;4.976;2023-11-19T19:23:34;155900;;;12.6;16
66206;BME280;53009;52.490;4.976;2023-11-19T19:28:35;155900;;;12.6;15.9
66206;BME280;53009;52.490;4.976;2023-11-19T19:33:35;155900;;;12.6;15.8
66206;BME280;53009;52.490;4.976;2023-11-19T19:38:35;155900;;;12.6;15.8
66206;BME280;53009;52.490;4.976;2023-11-19T19:43:35;155900;;;12.6;16.1
66206;BME280;53009;52.490;4.976;2023-11-19T19:48:35;155900;;;12.6;16
66206;BME280;53009;52.490;4.976;2023-11-19T19:53:35;155900;;;12.6;15.9
66206;BME280;53009;52.490;4.976;2023-11-19T19:58:35;155900;;;12.6;15.8
66206;BME280;53009;52.490;4.976;2023-11-19T20:03:35;155900;;;12.6;15.6
66206;BME280;53009;52.490;4.976;2023-11-19T20:08:35;156000;;;12.7;15.3
66206;BME280;53009;52.490;4.976;2023-11-19T20:13:35;156000;;;12.7;14.9
66206;BME280;53009;52.490;4.976;2023-11-19T20:18:35;156000;;;12.8;14.6
66206;BME280;53009;52.490;4.976;2023-11-19T20:23:35;156000;;;12.8;14.5
66206;BME280;53009;52.490;4.976;2023-11-19T20:28:35;156000;;;12.8;14.5
66206;BME280;53009;52.490;4.976;2023-11-19T20:33:35;156000;;;12.8;14.4
66206;BME280;53009;52.490;4.976;2023-11-19T20:38:35;156000;;;12.8;14.3
66206;BME280;53009;52.490;4.976;2023-11-19T20:43:35;156000;;;12.8;14.2
66206;BME280;53009;52.490;4.976;2023-11-19T20:48:35;156000;;;12.8;14.2
66206;BME280;53009;52.490;4.976;2023-11-19T20:53:35;156000;;;12.9;14
66206;BME280;53009;52.490;4.976;2023-11-19T20:58:35;156000;;;12.9;14.1
66206;BME280;53009;52.490;4.976;2023-11-19T21:03:35;156000;;;12.9;14.1
66206;BME280;53009;52.490;4.976;2023-11-19T21:08:35;155900;;;12.9;14
66206;BME280;53009;52.490;4.976;2023-11-19T21:13:35;155900;;;12.9;14
66206;BME280;53009;52.490;4.976;2023-11-19T21:18:35;155900;;;12.9;13.9
66206;BME280;53009;52.490;4.976;2023-11-19T21:23:35;155900;;;12.9;13.8
66206;BME280;53009;52.490;4.976;2023-11-19T21:28:35;155900;;;12.9;13.8
66206;BME280;53009;52.490;4.976;2023-11-19T21:33:35;155900;;;12.9;13.6
66206;BME280;53009;52.490;4.976;2023-11-19T21:38:35;155900;;;12.9;13.6
66206;BME280;53009;52.490;4.976;2023-11-19T21:43:35;155900;;;13;13.5
66206;BME280;53009;52.490;4.976;2023-11-19T21:48:35;155900;;;13;13.6
66206;BME280;53009;52.490;4.976;2023-11-19T21:53:35;155900;;;12.9;13.6
66206;BME280;53009;52.490;4.976;2023-11-19T21:58:35;155900;;;12.9;13.5
66206;BME280;53009;52.490;4.976;2023-11-19T22:03:35;155900;;;12.9;13.5
66206;BME280;53009;52.490;4.976;2023-11-19T22:08:35;155900;;;12.9;13.4
66206;BME280;53009;52.490;4.976;2023-11-19T22:13:35;155900;;;12.9;13.5
66206;BME280;53009;52.490;4.976;2023-11-19T22:18:35;155900;;;12.8;14
66206;BME280;53009;52.490;4.976;2023-11-19T22:23:35;155900;;;12.8;14.2
66206;BME280;53009;52.490;4.976;2023-11-19T22:28:35;155900;;;12.7;14.7
66206;BME280;53009;52.490;4.976;2023-11-19T22:33:35;155900;;;12.6;15.2
66206;BME280;53009;52.490;4.976;2023-11-19T22:38:35;155800;;;12.5;15.7
66206;BME280;53009;52.490;4.976;2023-11-19T22:43:35;155800;;;12.5;16
66206;BME280;53009;52.490;4.976;2023-11-19T22:48:35;155800;;;12.4;16.1
66206;BME280;53009;52.490;4.976;2023-11-19T22:53:35;155800;;;12.4;16.2
66206;BME280;53009;52.490;4.976;2023-11-19T22:58:35;155800;;;12.4;16.2
66206;BME280;53009;52.490;4.976;2023-11-19T23:03:35;155800;;;12.4;16.1
66206;BME280;53009;52.490;4.976;2023-11-19T23:08:35;155800;;;12.4;16
66206;BME280;53009;52.490;4.976;2023-11-19T23:13:35;155800;;;12.4;15.8
66206;BME280;53009;52.490;4.976;2023-11-19T23:18:35;155800;;;12.4;15.6
66206;BME280;53009;52.490;4.976;2023-11-19T23:23:35;155800;;;12.5;15.5
66206;BME280;53009;52.490;4.976;2023-11-19T23:28:35;155800;;;12.4;15.4
66206;BME280;53009;52.490;4.976;2023-11-19T23:33:35;155800;;;12.5;15.4
66206;BME280;53009;52.490;4.976;2023-11-19T23:38:35;155800;;;12.4;15.6
66206;BME280;53009;52.490;4.976;2023-11-19T23:43:35;155800;;;12.4;15.7
66206;BME280;53009;52.490;4.976;2023-11-19T23:48:35;155800;;;12.4;15.6
66206;BME280;53009;52.490;4.976;2023-11-19T23:53:35;155800;;;12.4;15.5
66206;BME280;53009;52.490;4.976;2023-11-19T23:58:35;155800;;;12.4;15.5
